Terminal Aerodrome Forecast
Issued by NWS

Home | Current Version | Previous Version | Text Only | Print | Product List | Glossary Off
Versions: 1 2 3 4 5 6 7 8 9 10 11 12 13 14

000
FTUS43 KTOP 200520
TAFMHK
TAF
KMHK 200520Z 2006/2106 20007KT P6SM SCT250 WS010/20035KT
     FM201400 18012KT P6SM SCT250
     FM201800 19019G28KT P6SM SCT100 BKN200=

USA.gov is the U.S. government's official web portal to all federal, state and local government web resources and services.